createdAt,value
2023-01-25T00:00:36.087Z,19.40
2023-01-25T00:03:30.663Z,17.50
2023-01-25T00:06:03.393Z,18.50
2023-01-25T00:08:36.095Z,18.30
2023-01-25T00:11:08.497Z,17.70
2023-01-25T00:13:40.731Z,19.80
2023-01-25T00:16:13.193Z,18.30
2023-01-25T00:18:45.499Z,17.60
2023-01-25T00:21:19.339Z,16.60
2023-01-25T00:23:52.284Z,17.50
2023-01-25T00:26:24.862Z,18.00
2023-01-25T00:28:58.041Z,17.90
2023-01-25T00:31:42.177Z,20.10
2023-01-25T00:34:44.872Z,19.80
2023-01-25T00:37:26.536Z,17.50
2023-01-25T00:39:58.959Z,14.90
2023-01-25T00:42:31.288Z,18.80
2023-01-25T00:45:03.672Z,16.40
2023-01-25T00:47:35.992Z,16.30
2023-01-25T00:50:13.306Z,16.80
2023-01-25T00:52:45.774Z,16.30
2023-01-25T00:55:18.218Z,15.30
2023-01-25T00:57:50.620Z,16.80
2023-01-25T01:00:23.279Z,16.70
2023-01-25T01:02:56.778Z,17.80
2023-01-25T01:05:29.594Z,17.90
2023-01-25T01:08:02.165Z,18.30
2023-01-25T01:10:34.534Z,16.30
2023-01-25T01:13:06.834Z,16.50
2023-01-25T01:15:40.138Z,17.20
2023-01-25T01:18:12.583Z,16.10
2023-01-25T01:20:51.394Z,17.20
2023-01-25T01:23:24.010Z,17.70
2023-01-25T01:25:56.479Z,17.80
2023-01-25T01:28:28.970Z,18.00
2023-01-25T01:31:04.648Z,16.80
2023-01-25T01:33:39.829Z,17.20
2023-01-25T01:36:15.531Z,17.40
2023-01-25T01:38:47.936Z,20.60
2023-01-25T01:41:20.929Z,20.10
2023-01-25T01:43:53.792Z,18.30
2023-01-25T01:46:29.479Z,17.90
2023-01-25T01:49:05.923Z,17.00
2023-01-25T01:51:48.857Z,16.90
2023-01-25T01:54:28.791Z,18.00
2023-01-25T01:57:06.964Z,15.00
2023-01-25T01:59:45.530Z,18.30
2023-01-25T02:02:18.203Z,17.90
2023-01-25T02:04:53.011Z,18.90
2023-01-25T02:07:31.534Z,18.10
2023-01-25T02:10:06.548Z,20.20
2023-01-25T02:12:39.855Z,16.60
2023-01-25T02:15:15.863Z,16.40
2023-01-25T02:17:48.755Z,17.60
2023-01-25T02:20:27.893Z,17.50
2023-01-25T02:23:08.597Z,16.30
2023-01-25T02:25:41.434Z,17.20
2023-01-25T02:28:19.860Z,14.60
2023-01-25T02:30:52.337Z,14.40
2023-01-25T02:33:27.899Z,14.40
2023-01-25T02:36:16.705Z,15.50
2023-01-25T02:38:55.799Z,14.10
2023-01-25T02:41:39.494Z,17.90
2023-01-25T02:44:15.233Z,14.90
2023-01-25T02:46:48.088Z,15.10
2023-01-25T02:49:20.865Z,14.30
2023-01-25T02:51:57.544Z,15.10
2023-01-25T02:54:30.218Z,15.50
2023-01-25T02:57:02.674Z,15.80
2023-01-25T02:59:40.671Z,16.60
2023-01-25T03:02:13.208Z,15.20
2023-01-25T03:04:46.132Z,19.00
2023-01-25T03:07:18.679Z,16.60
2023-01-25T03:09:51.053Z,19.20
2023-01-25T03:12:24.705Z,15.40
2023-01-25T03:14:57.218Z,15.50
2023-01-25T03:17:31.309Z,16.40
2023-01-25T03:20:03.889Z,16.60
2023-01-25T03:22:36.983Z,17.00
2023-01-25T03:25:11.159Z,19.30
2023-01-25T03:27:44.725Z,20.60
2023-01-25T03:30:18.214Z,20.10
2023-01-25T03:32:50.883Z,20.60
2023-01-25T03:35:24.592Z,19.00
2023-01-25T03:37:57.334Z,20.40
2023-01-25T03:40:29.781Z,21.30
2023-01-25T03:43:02.166Z,21.20
2023-01-25T03:45:34.734Z,21.30
2023-01-25T03:48:07.905Z,23.10
2023-01-25T03:50:40.272Z,23.40
2023-01-25T03:53:27.145Z,21.40
2023-01-25T03:56:02.792Z,23.10
2023-01-25T03:58:37.311Z,20.70
2023-01-25T04:01:10.714Z,18.20
2023-01-25T04:03:43.448Z,20.20
2023-01-25T04:06:16.276Z,19.10
2023-01-25T04:08:49.243Z,21.40
2023-01-25T04:11:22.151Z,20.00
2023-01-25T04:13:54.649Z,18.40
2023-01-25T04:16:30.617Z,18.50
2023-01-25T04:19:17.489Z,27.10
2023-01-25T04:21:49.908Z,20.10
2023-01-25T04:24:23.172Z,21.20
2023-01-25T04:26:55.695Z,19.30
2023-01-25T04:29:40.036Z,18.60
2023-01-25T04:32:14.071Z,20.70
2023-01-25T04:34:46.760Z,20.30
2023-01-25T04:37:21.266Z,25.60
2023-01-25T04:40:03.013Z,21.40
2023-01-25T04:42:38.613Z,21.40
2023-01-25T04:45:12.671Z,19.30
2023-01-25T04:47:45.132Z,16.90
2023-01-25T04:50:17.752Z,17.10
2023-01-25T04:52:51.399Z,17.90
2023-01-25T04:55:24.658Z,20.00
2023-01-25T04:57:57.588Z,17.30
2023-01-25T05:00:30.461Z,17.40
2023-01-25T05:03:03.898Z,19.40
2023-01-25T05:05:37.761Z,18.10
2023-01-25T05:08:14.843Z,21.30
2023-01-25T05:10:47.427Z,21.60
2023-01-25T05:13:31.999Z,17.80
2023-01-25T05:16:13.213Z,19.00
2023-01-25T05:18:48.907Z,17.40
2023-01-25T05:21:45.502Z,20.50
2023-01-25T05:24:18.603Z,24.30
2023-01-25T05:27:04.616Z,41.40
2023-01-25T05:29:55.981Z,58.70
2023-01-25T05:32:33.136Z,30.20
2023-01-25T05:35:05.950Z,32.30
2023-01-25T05:37:38.736Z,30.70
2023-01-25T05:40:14.492Z,21.40
2023-01-25T05:42:46.867Z,18.20
2023-01-25T05:45:22.536Z,17.80
2023-01-25T05:47:57.714Z,20.90
2023-01-25T05:50:30.517Z,21.00
2023-01-25T05:53:15.365Z,20.30
2023-01-25T05:55:47.866Z,21.00
2023-01-25T05:58:21.390Z,19.40
2023-01-25T06:00:53.693Z,22.10
2023-01-25T06:03:32.930Z,19.50
2023-01-25T06:06:06.702Z,20.80
2023-01-25T06:08:40.213Z,21.00
2023-01-25T06:11:14.665Z,19.60
2023-01-25T06:13:50.868Z,18.20
2023-01-25T06:16:23.490Z,21.50
2023-01-25T06:19:13.967Z,21.80
2023-01-25T06:22:10.931Z,20.30
2023-01-25T06:24:43.352Z,26.20
2023-01-25T06:27:15.800Z,20.70
2023-01-25T06:29:48.264Z,17.20
2023-01-25T06:32:20.720Z,17.20
2023-01-25T06:34:53.420Z,18.10
2023-01-25T06:37:27.634Z,19.10
2023-01-25T06:39:59.963Z,20.40
2023-01-25T06:42:32.335Z,19.60
2023-01-25T06:45:04.674Z,20.70
2023-01-25T06:47:37.002Z,22.30
2023-01-25T06:50:12.697Z,21.40
2023-01-25T06:52:45.272Z,37.30
2023-01-25T06:55:17.947Z,62.60
2023-01-25T06:57:50.631Z,43.20
2023-01-25T07:00:23.558Z,45.30
2023-01-25T07:02:55.995Z,23.40
2023-01-25T07:05:28.420Z,20.90
2023-01-25T07:08:00.815Z,24.10
2023-01-25T07:15:24.557Z,25.00
2023-01-25T07:18:03.162Z,20.50
2023-01-25T07:20:40.664Z,21.20
2023-01-25T07:23:12.967Z,23.10
2023-01-25T07:25:48.706Z,21.30
2023-01-25T07:28:21.111Z,21.90
2023-01-25T07:30:53.607Z,21.70
2023-01-25T07:33:25.988Z,21.40
2023-01-25T07:36:02.664Z,46.40
2023-01-25T07:38:35.391Z,41.50
2023-01-25T07:41:07.969Z,29.80
2023-01-25T07:43:40.351Z,105.10
2023-01-25T07:46:17.351Z,208.70
2023-01-25T07:48:51.538Z,170.30
2023-01-25T07:51:25.233Z,34.80
2023-01-25T07:53:59.239Z,34.00
2023-01-25T07:56:34.024Z,82.50
2023-01-25T07:59:08.709Z,60.00
2023-01-25T08:01:42.128Z,42.20
2023-01-25T08:04:14.533Z,34.20
2023-01-25T08:06:48.003Z,27.80
2023-01-25T08:09:20.962Z,22.50
2023-01-25T08:11:53.756Z,21.80
2023-01-25T08:14:26.267Z,25.50
2023-01-25T08:16:58.710Z,27.20
2023-01-25T08:19:33.670Z,25.70
2023-01-25T08:22:08.192Z,32.60
2023-01-25T08:24:40.634Z,26.20
2023-01-25T08:27:13.126Z,28.00
2023-01-25T08:29:45.451Z,27.30
2023-01-25T08:32:17.799Z,28.30
2023-01-25T08:34:50.157Z,37.60
2023-01-25T08:37:22.585Z,36.30
2023-01-25T08:39:57.269Z,42.70
2023-01-25T08:42:29.747Z,39.20
2023-01-25T08:45:02.896Z,30.80
2023-01-25T08:47:35.330Z,28.70
2023-01-25T08:50:10.990Z,25.10
2023-01-25T08:52:43.498Z,22.40
2023-01-25T08:55:15.979Z,38.80
2023-01-25T08:57:50.471Z,77.60
2023-01-25T09:00:24.644Z,90.10
2023-01-25T09:02:57.000Z,122.80
2023-01-25T09:05:30.662Z,179.00
2023-01-25T09:08:03.274Z,93.00
2023-01-25T09:10:35.857Z,149.90
2023-01-25T09:13:08.870Z,102.30
2023-01-25T09:15:41.681Z,66.30
2023-01-25T09:18:14.849Z,78.50
2023-01-25T09:20:47.271Z,40.30
2023-01-25T09:23:23.869Z,44.60
2023-01-25T09:26:01.064Z,29.50
2023-01-25T09:28:34.553Z,27.10
2023-01-25T09:31:20.971Z,24.60
2023-01-25T09:34:08.750Z,25.10
2023-01-25T09:36:41.902Z,24.40
2023-01-25T09:39:14.657Z,26.30
2023-01-25T09:42:15.650Z,26.00
2023-01-25T09:44:59.708Z,26.40
2023-01-25T09:47:39.595Z,22.30
2023-01-25T09:50:30.507Z,28.70
2023-01-25T09:53:18.450Z,34.00
2023-01-25T09:55:58.894Z,26.40
2023-01-25T09:58:36.204Z,24.60
2023-01-25T10:01:37.567Z,27.30
2023-01-25T10:04:15.985Z,27.10
2023-01-25T10:07:00.245Z,27.20
2023-01-25T10:09:42.696Z,21.60
2023-01-25T10:12:21.826Z,23.00
2023-01-25T10:14:55.519Z,22.70
2023-01-25T10:17:34.921Z,22.40
2023-01-25T10:20:24.268Z,22.50
2023-01-25T10:23:21.003Z,29.50
2023-01-25T10:26:00.682Z,28.10
2023-01-25T10:28:44.869Z,40.60
2023-01-25T10:31:20.781Z,37.00
2023-01-25T10:33:54.726Z,28.00
2023-01-25T10:36:31.714Z,29.20
2023-01-25T10:39:07.596Z,32.80
2023-01-25T10:41:43.187Z,39.50
2023-01-25T10:44:25.681Z,38.40
2023-01-25T10:47:07.384Z,31.60
2023-01-25T10:49:44.173Z,23.60
2023-01-25T10:52:20.065Z,29.90
2023-01-25T10:55:16.869Z,27.20
2023-01-25T10:57:52.758Z,23.00
2023-01-25T11:00:30.806Z,22.80
2023-01-25T11:03:03.405Z,20.00
2023-01-25T11:05:38.040Z,19.70
2023-01-25T11:08:26.250Z,20.50
2023-01-25T11:11:00.554Z,20.10
2023-01-25T11:13:35.760Z,22.70
2023-01-25T11:18:55.541Z,29.00
2023-01-25T11:21:30.288Z,26.90
2023-01-25T11:24:05.668Z,22.80
2023-01-25T11:26:40.088Z,27.30
2023-01-25T11:29:17.465Z,65.00
2023-01-25T11:31:51.796Z,43.90
2023-01-25T11:34:28.574Z,35.10
2023-01-25T11:37:23.887Z,27.50
2023-01-25T11:40:09.141Z,23.40
2023-01-25T11:42:51.055Z,57.50
2023-01-25T11:46:01.678Z,36.40
2023-01-25T11:49:00.221Z,26.00
2023-01-25T11:51:42.594Z,20.50
2023-01-25T11:54:40.270Z,19.50
2023-01-25T11:57:28.627Z,31.50
2023-01-25T12:00:15.401Z,28.90
2023-01-25T12:03:22.681Z,17.00
2023-01-25T12:06:04.246Z,19.50
2023-01-25T12:08:57.863Z,18.80
2023-01-25T12:11:44.733Z,18.50
2023-01-25T12:14:29.359Z,17.60
2023-01-25T12:17:17.238Z,17.20
2023-01-25T12:20:07.162Z,16.80
2023-01-25T12:22:55.335Z,17.20
2023-01-25T12:25:37.398Z,19.10
2023-01-25T12:28:17.051Z,18.20
2023-01-25T12:30:55.950Z,86.00
2023-01-25T12:33:35.462Z,24.50
2023-01-25T12:36:14.904Z,23.40
2023-01-25T12:38:54.123Z,22.50
2023-01-25T12:41:34.662Z,22.00
2023-01-25T12:44:15.430Z,24.40
2023-01-25T12:46:53.388Z,36.50
2023-01-25T12:49:34.824Z,57.60
2023-01-25T12:52:17.034Z,25.70
2023-01-25T12:54:50.956Z,22.50
2023-01-25T12:57:29.654Z,28.50
2023-01-25T13:00:18.921Z,32.50
2023-01-25T13:03:12.283Z,22.10
2023-01-25T13:05:51.389Z,22.20
2023-01-25T13:08:35.972Z,26.10
2023-01-25T13:11:16.423Z,38.40
2023-01-25T13:13:48.920Z,35.40
2023-01-25T13:16:44.574Z,32.30
2023-01-25T13:19:41.932Z,29.40
2023-01-25T13:22:16.505Z,20.40
2023-01-25T13:25:22.263Z,21.10
2023-01-25T13:28:15.024Z,23.60
2023-01-25T13:30:56.028Z,17.90
2023-01-25T13:33:37.433Z,19.50
2023-01-25T13:36:46.560Z,20.60
2023-01-25T13:39:47.187Z,17.90
2023-01-25T13:42:23.811Z,21.30
2023-01-25T13:44:58.527Z,26.00
2023-01-25T13:47:37.925Z,46.40
2023-01-25T13:50:23.590Z,22.40
2023-01-25T13:53:03.803Z,22.10
2023-01-25T13:55:43.863Z,39.40
2023-01-25T13:58:20.719Z,33.60
2023-01-25T14:00:56.834Z,52.30
2023-01-25T14:03:32.096Z,55.00
2023-01-25T14:08:37.553Z,87.30
2023-01-25T14:11:10.690Z,40.10
2023-01-25T14:13:58.537Z,37.10
2023-01-25T14:16:32.353Z,56.70
2023-01-25T14:19:29.083Z,68.90
2023-01-25T14:22:23.449Z,53.60
2023-01-25T14:25:13.937Z,48.90
2023-01-25T14:27:48.534Z,69.20
2023-01-25T14:30:23.903Z,34.20
2023-01-25T14:32:58.405Z,34.30
2023-01-25T14:35:53.718Z,39.30
2023-01-25T14:38:30.804Z,78.50
2023-01-25T14:41:08.306Z,49.70
2023-01-25T14:43:45.437Z,49.50
2023-01-25T14:46:29.961Z,36.30
2023-01-25T14:49:26.657Z,42.50
2023-01-25T14:52:07.486Z,72.40
2023-01-25T14:54:48.920Z,31.40
2023-01-25T14:57:34.170Z,30.30
2023-01-25T15:00:18.568Z,35.40
2023-01-25T15:02:55.306Z,45.90
2023-01-25T15:05:29.421Z,108.90
2023-01-25T15:08:17.856Z,223.50
2023-01-25T15:10:58.331Z,184.00
2023-01-25T15:13:31.224Z,100.20
2023-01-25T15:16:05.957Z,73.70
2023-01-25T15:18:51.183Z,85.60
2023-01-25T15:21:28.488Z,44.60
2023-01-25T15:24:06.683Z,79.40
2023-01-25T15:26:39.484Z,74.90
2023-01-25T15:29:16.238Z,67.50
2023-01-25T15:31:49.442Z,54.00
2023-01-25T15:34:25.762Z,63.80
2023-01-25T15:36:58.029Z,67.40
2023-01-25T15:39:31.615Z,87.30
2023-01-25T15:42:04.025Z,178.30
2023-01-25T15:44:36.488Z,89.00
2023-01-25T15:47:11.142Z,100.80
2023-01-25T15:49:43.462Z,87.50
2023-01-25T15:52:15.943Z,67.00
2023-01-25T15:54:55.913Z,69.60
2023-01-25T15:57:35.963Z,65.70
2023-01-25T16:00:16.481Z,82.40
2023-01-25T16:02:49.340Z,77.80
2023-01-25T16:05:21.839Z,63.50
2023-01-25T16:07:54.192Z,54.20
2023-01-25T16:10:27.570Z,52.20
2023-01-25T16:13:00.028Z,48.40
2023-01-25T16:15:32.322Z,68.50
2023-01-25T16:18:04.784Z,47.80
2023-01-25T16:20:37.298Z,53.00
2023-01-25T16:23:10.254Z,58.90
2023-01-25T16:25:45.379Z,63.00
2023-01-25T16:28:18.600Z,65.80
2023-01-25T16:30:50.960Z,115.70
2023-01-25T16:33:25.000Z,86.70
2023-01-25T16:36:13.524Z,76.80
2023-01-25T16:38:46.261Z,82.70
2023-01-25T16:41:18.923Z,84.00
2023-01-25T16:43:53.663Z,77.60
2023-01-25T16:46:26.396Z,47.70
2023-01-25T16:49:00.234Z,53.30
2023-01-25T16:51:33.221Z,48.70
2023-01-25T16:54:05.836Z,42.40
2023-01-25T16:56:38.673Z,43.70
2023-01-25T16:59:12.339Z,37.10
2023-01-25T17:01:45.027Z,40.70
2023-01-25T17:04:17.772Z,43.40
2023-01-25T17:06:53.141Z,57.40
2023-01-25T17:09:25.832Z,50.80
2023-01-25T17:11:58.219Z,43.60
2023-01-25T17:14:30.650Z,52.90
2023-01-25T17:17:05.406Z,46.80
2023-01-25T17:19:37.789Z,41.40
2023-01-25T17:22:10.384Z,86.80
2023-01-25T17:24:42.789Z,102.50
2023-01-25T17:27:15.971Z,107.40
2023-01-25T17:29:48.383Z,192.60
2023-01-25T17:32:20.761Z,300.90
2023-01-25T17:34:53.853Z,137.90
2023-01-25T17:37:26.222Z,125.80
2023-01-25T17:39:58.650Z,126.10
2023-01-25T17:42:31.113Z,129.30
2023-01-25T17:45:03.469Z,86.90
2023-01-25T17:47:36.974Z,64.80
2023-01-25T17:50:12.722Z,50.00
2023-01-25T17:52:45.257Z,108.00
2023-01-25T17:55:17.766Z,91.20
2023-01-25T17:57:51.345Z,86.80
2023-01-25T18:00:25.215Z,92.80
2023-01-25T18:02:58.574Z,96.00
2023-01-25T18:05:31.124Z,47.10
2023-01-25T18:08:03.433Z,58.20
2023-01-25T18:10:35.823Z,65.50
2023-01-25T18:13:08.208Z,65.70
2023-01-25T18:15:40.542Z,72.60
2023-01-25T18:18:12.880Z,105.80
2023-01-25T18:20:45.247Z,125.30
2023-01-25T18:23:17.671Z,98.20
2023-01-25T18:25:50.567Z,108.30
2023-01-25T18:28:22.900Z,56.20
2023-01-25T18:31:00.690Z,144.40
2023-01-25T18:33:33.797Z,106.70
2023-01-25T18:36:07.135Z,84.10
2023-01-25T18:38:39.611Z,49.10
2023-01-25T18:41:12.184Z,49.10
2023-01-25T18:43:44.587Z,72.30
2023-01-25T18:46:17.151Z,59.30
2023-01-25T18:48:51.156Z,93.00
2023-01-25T18:51:23.729Z,64.80
2023-01-25T18:53:56.498Z,47.90
2023-01-25T18:56:29.463Z,38.60
2023-01-25T18:59:02.032Z,42.70
2023-01-25T19:01:34.481Z,58.40
2023-01-25T19:04:07.679Z,86.90
2023-01-25T19:06:40.130Z,52.80
2023-01-25T19:09:13.720Z,51.30
2023-01-25T19:11:46.168Z,52.70
2023-01-25T19:14:19.336Z,42.20
2023-01-25T19:16:52.397Z,52.40
2023-01-25T19:19:25.277Z,56.60
2023-01-25T19:21:57.731Z,44.30
2023-01-25T19:24:31.066Z,40.00
2023-01-25T19:27:09.455Z,40.40
2023-01-25T19:29:42.112Z,49.40
2023-01-25T19:32:14.661Z,40.80
2023-01-25T19:34:46.968Z,42.40
2023-01-25T19:37:19.480Z,62.70
2023-01-25T19:39:54.207Z,56.20
2023-01-25T19:42:28.523Z,40.90
2023-01-25T19:45:03.104Z,49.00
2023-01-25T19:47:35.596Z,58.20
2023-01-25T19:50:12.752Z,58.10
2023-01-25T19:52:45.263Z,45.90
2023-01-25T19:55:17.975Z,45.30
2023-01-25T19:57:50.584Z,42.70
2023-01-25T20:00:24.872Z,37.80
2023-01-25T20:03:07.226Z,40.90
2023-01-25T20:05:47.425Z,38.00
2023-01-25T20:08:19.770Z,29.50
2023-01-25T20:10:52.150Z,29.90
2023-01-25T20:13:24.576Z,32.00
2023-01-25T20:15:57.673Z,34.60
2023-01-25T20:18:31.263Z,38.00
2023-01-25T20:21:06.206Z,56.10
2023-01-25T20:23:40.454Z,92.60
2023-01-25T20:26:15.733Z,69.70
2023-01-25T20:28:51.667Z,51.10
2023-01-25T20:31:26.126Z,44.40
2023-01-25T20:34:00.710Z,41.80
2023-01-25T20:36:34.932Z,66.40
2023-01-25T20:39:08.958Z,41.60
2023-01-25T20:41:41.273Z,76.70
2023-01-25T20:44:15.731Z,103.90
2023-01-25T20:46:48.950Z,107.80
2023-01-25T20:49:21.498Z,119.70
2023-01-25T20:51:53.829Z,143.00
2023-01-25T20:54:26.482Z,289.90
2023-01-25T20:56:58.826Z,288.30
2023-01-25T20:59:31.270Z,217.50
2023-01-25T21:02:03.642Z,119.40
2023-01-25T21:04:36.128Z,243.60
2023-01-25T21:07:08.546Z,435.50
2023-01-25T21:09:42.849Z,167.60
2023-01-25T21:12:15.626Z,97.40
2023-01-25T21:14:48.553Z,34.20
2023-01-25T21:17:20.952Z,46.30
2023-01-25T21:19:53.339Z,60.20
2023-01-25T21:22:25.901Z,61.10
2023-01-25T21:24:58.443Z,57.00
2023-01-25T21:27:30.970Z,41.80
2023-01-25T21:30:03.767Z,33.20
2023-01-25T21:32:36.209Z,37.70
2023-01-25T21:35:10.644Z,41.70
2023-01-25T21:37:44.492Z,61.20
2023-01-25T21:40:20.611Z,41.10
2023-01-25T21:42:52.989Z,38.30
2023-01-25T21:45:42.999Z,31.90
2023-01-25T21:48:35.644Z,43.60
2023-01-25T21:51:29.965Z,48.00
2023-01-25T21:54:02.658Z,49.60
2023-01-25T21:56:35.086Z,37.30
2023-01-25T21:59:07.586Z,133.50
2023-01-25T22:01:40.480Z,51.40
2023-01-25T22:04:14.084Z,30.00
2023-01-25T22:06:48.773Z,32.70
2023-01-25T22:09:21.765Z,30.60
2023-01-25T22:11:55.936Z,28.70
2023-01-25T22:14:28.558Z,31.20
2023-01-25T22:17:02.307Z,40.60
2023-01-25T22:19:34.656Z,33.90
2023-01-25T22:22:06.986Z,38.20
2023-01-25T22:24:39.438Z,31.60
2023-01-25T22:27:32.757Z,38.30
2023-01-25T22:30:05.382Z,98.80
2023-01-25T22:32:37.825Z,87.00
2023-01-25T22:35:11.222Z,73.60
2023-01-25T22:37:43.535Z,85.00
2023-01-25T22:40:16.610Z,40.00
2023-01-25T22:42:49.004Z,32.30
2023-01-25T22:45:21.449Z,63.10
2023-01-25T22:47:53.904Z,35.40
2023-01-25T22:50:26.603Z,31.40
2023-01-25T22:52:58.968Z,29.30
2023-01-25T22:55:32.246Z,41.40
2023-01-25T22:58:04.623Z,33.50
2023-01-25T23:00:37.532Z,30.10
2023-01-25T23:03:10.305Z,31.30
2023-01-25T23:05:43.074Z,30.10
2023-01-25T23:08:15.462Z,33.20
2023-01-25T23:10:48.000Z,31.10
2023-01-25T23:13:20.331Z,38.70
2023-01-25T23:15:52.725Z,31.40
2023-01-25T23:18:42.999Z,30.00
2023-01-25T23:21:15.596Z,30.30
2023-01-25T23:23:48.128Z,29.90
2023-01-25T23:26:20.543Z,31.80
2023-01-25T23:28:54.545Z,34.00
2023-01-25T23:31:27.442Z,32.30
2023-01-25T23:34:02.450Z,31.40
2023-01-25T23:36:38.770Z,34.80
2023-01-25T23:39:15.309Z,40.20
2023-01-25T23:41:49.122Z,36.40
2023-01-25T23:44:21.820Z,31.20
2023-01-25T23:46:54.542Z,29.40
2023-01-25T23:49:26.953Z,64.10
2023-01-25T23:51:59.403Z,33.70
2023-01-25T23:54:32.134Z,31.00
2023-01-25T23:57:04.756Z,26.40
2023-01-25T23:59:37.603Z,26.90
